createdAt,value
2022-12-19T00:00:49.601Z,102208.61
2022-12-19T00:03:27.399Z,102203.13
2022-12-19T00:05:55.921Z,102200.80
2022-12-19T00:08:24.478Z,102206.27
2022-12-19T00:11:01.868Z,102202.23
2022-12-19T00:13:36.886Z,102204.38
2022-12-19T00:16:18.848Z,102211.19
2022-12-19T00:18:49.258Z,102210.62
2022-12-19T00:21:21.045Z,102209.23
2022-12-19T00:23:50.680Z,102210.70
2022-12-19T00:26:39.676Z,102224.36
2022-12-19T00:29:14.052Z,102221.68
2022-12-19T00:31:42.949Z,102223.41
2022-12-19T00:34:11.417Z,102220.77
2022-12-19T00:36:40.989Z,102217.40
2022-12-19T00:39:10.652Z,102229.52
2022-12-19T00:41:42.130Z,102227.52
2022-12-19T00:44:14.586Z,102224.38
2022-12-19T00:46:43.885Z,102218.23
2022-12-19T00:49:19.532Z,102219.86
2022-12-19T00:51:48.449Z,102216.82
2022-12-19T00:54:16.874Z,102222.54
2022-12-19T00:56:45.447Z,102226.25
2022-12-19T00:59:13.922Z,102228.40
2022-12-19T01:01:43.215Z,102223.30
2022-12-19T01:04:33.497Z,102223.67
2022-12-19T01:07:06.037Z,102225.05
2022-12-19T01:09:36.765Z,102227.98
2022-12-19T01:12:59.697Z,102229.33
2022-12-19T01:15:28.301Z,102226.22
2022-12-19T01:17:56.842Z,102225.18
2022-12-19T01:20:29.673Z,102225.84
2022-12-19T01:23:00.450Z,102226.39
2022-12-19T01:25:29.628Z,102222.33
2022-12-19T01:27:58.240Z,102211.96
2022-12-19T01:30:29.231Z,102222.77
2022-12-19T01:33:00.992Z,102213.42
2022-12-19T01:35:29.719Z,102210.19
2022-12-19T01:38:07.994Z,102213.66
2022-12-19T01:40:37.815Z,102212.44
2022-12-19T01:43:12.817Z,102215.79
2022-12-19T01:45:45.811Z,102207.23
2022-12-19T01:48:24.358Z,102207.70
2022-12-19T01:51:03.328Z,102195.64
2022-12-19T01:53:48.821Z,102209.67
2022-12-19T01:56:24.883Z,102214.63
2022-12-19T01:59:05.643Z,102216.88
2022-12-19T02:01:51.241Z,102212.48
2022-12-19T02:04:30.925Z,102216.37
2022-12-19T02:07:15.258Z,102221.35
2022-12-19T02:09:47.165Z,102211.80
2022-12-19T02:12:28.151Z,102216.73
2022-12-19T02:15:02.941Z,102215.12
2022-12-19T02:18:19.086Z,102217.53
2022-12-19T02:21:21.362Z,102211.39
2022-12-19T02:24:28.688Z,102215.48
2022-12-19T02:27:25.982Z,102203.39
2022-12-19T02:30:17.887Z,102211.06
2022-12-19T02:33:08.920Z,102204.23
2022-12-19T02:35:47.269Z,102207.06
2022-12-19T02:38:52.941Z,102218.20
2022-12-19T02:41:30.180Z,102216.39
2022-12-19T02:44:00.307Z,102212.77
2022-12-19T02:46:30.348Z,102216.33
2022-12-19T02:48:59.423Z,102220.23
2022-12-19T02:51:27.949Z,102217.94
2022-12-19T02:53:56.673Z,102218.70
2022-12-19T02:56:50.959Z,102223.09
2022-12-19T02:59:43.990Z,102234.35
2022-12-19T03:02:37.949Z,102232.45
2022-12-19T03:05:22.835Z,102225.73
2022-12-19T03:08:14.304Z,102219.70
2022-12-19T03:11:06.866Z,102220.01
2022-12-19T03:14:02.308Z,102221.73
2022-12-19T03:16:31.024Z,102223.83
2022-12-19T03:19:01.525Z,102220.80
2022-12-19T03:21:37.627Z,102228.21
2022-12-19T03:24:08.495Z,102228.26
2022-12-19T03:27:20.208Z,102232.77
2022-12-19T03:30:12.513Z,102223.64
2022-12-19T03:32:45.688Z,102224.54
2022-12-19T03:35:23.272Z,102226.30
2022-12-19T03:37:56.275Z,102220.45
2022-12-19T03:40:29.042Z,102234.16
2022-12-19T03:43:12.648Z,102234.81
2022-12-19T03:46:14.462Z,102240.30
2022-12-19T03:48:51.355Z,102243.50
2022-12-19T03:51:48.499Z,102248.25
2022-12-19T03:54:23.917Z,102255.67
2022-12-19T03:57:13.914Z,102264.27
2022-12-19T04:00:04.604Z,102250.27
2022-12-19T04:02:51.390Z,102255.10
2022-12-19T04:05:25.275Z,102263.64
2022-12-19T04:08:02.597Z,102270.86
2022-12-19T04:10:35.215Z,102279.55
2022-12-19T04:13:09.527Z,102274.00
2022-12-19T04:16:37.951Z,102273.04
2022-12-19T04:19:20.838Z,102273.36
2022-12-19T04:22:16.152Z,102278.63
2022-12-19T04:24:46.549Z,102275.80
2022-12-19T04:27:15.398Z,102280.10
2022-12-19T04:29:44.311Z,102283.05
2022-12-19T04:32:14.293Z,102280.84
2022-12-19T04:34:43.214Z,102283.21
2022-12-19T04:37:12.378Z,102287.05
2022-12-19T04:39:41.294Z,102285.46
2022-12-19T04:42:09.950Z,102287.80
2022-12-19T04:44:38.430Z,102292.02
2022-12-19T04:47:06.859Z,102290.73
2022-12-19T04:49:35.379Z,102296.84
2022-12-19T04:52:03.895Z,102304.42
2022-12-19T04:54:33.452Z,102307.89
2022-12-19T04:57:01.919Z,102304.33
2022-12-19T04:59:30.576Z,102302.09
2022-12-19T05:01:59.212Z,102303.34
2022-12-19T05:04:28.515Z,102303.76
2022-12-19T05:06:57.745Z,102313.43
2022-12-19T05:09:27.337Z,102317.55
2022-12-19T05:11:55.774Z,102309.21
2022-12-19T05:14:24.474Z,102313.96
2022-12-19T05:16:57.231Z,102311.81
2022-12-19T05:19:29.364Z,102333.11
2022-12-19T05:21:58.012Z,102336.45
2022-12-19T05:24:26.526Z,102336.60
2022-12-19T05:26:55.100Z,102332.04
2022-12-19T05:29:23.652Z,102329.09
2022-12-19T05:31:52.077Z,102332.69
2022-12-19T05:34:20.586Z,102334.34
2022-12-19T05:36:49.007Z,102343.68
2022-12-19T05:39:17.534Z,102337.98
2022-12-19T05:41:49.173Z,102334.10
2022-12-19T05:44:20.489Z,102337.67
2022-12-19T05:46:52.966Z,102335.90
2022-12-19T05:49:21.931Z,102316.38
2022-12-19T05:51:58.615Z,102328.95
2022-12-19T05:54:28.476Z,102343.07
2022-12-19T05:56:57.544Z,102333.16
2022-12-19T05:59:28.111Z,102361.77
2022-12-19T06:01:56.859Z,102364.35
2022-12-19T06:04:25.861Z,102362.02
2022-12-19T06:06:54.855Z,102361.14
2022-12-19T06:09:23.904Z,102357.02
2022-12-19T06:11:53.131Z,102370.56
2022-12-19T06:14:21.672Z,102365.95
2022-12-19T06:16:50.245Z,102367.52
2022-12-19T06:19:18.733Z,102377.16
2022-12-19T06:21:48.630Z,102387.10
2022-12-19T06:24:17.863Z,102393.45
2022-12-19T06:26:46.653Z,102394.88
2022-12-19T06:29:21.381Z,102393.55
2022-12-19T06:31:51.483Z,102395.31
2022-12-19T06:34:39.879Z,102384.16
2022-12-19T06:37:08.678Z,102390.88
2022-12-19T06:39:37.267Z,102387.40
2022-12-19T06:42:24.174Z,102396.80
2022-12-19T06:44:55.946Z,102384.55
2022-12-19T06:47:25.293Z,102394.77
2022-12-19T06:49:54.047Z,102403.59
2022-12-19T06:52:23.467Z,102408.73
2022-12-19T06:54:51.972Z,102408.85
2022-12-19T06:57:20.579Z,102410.96
2022-12-19T06:59:49.261Z,102408.80
2022-12-19T07:02:31.764Z,102408.45
2022-12-19T07:05:07.969Z,102411.41
2022-12-19T07:07:36.890Z,102416.45
2022-12-19T07:10:06.678Z,102415.70
2022-12-19T07:12:37.121Z,102416.38
2022-12-19T07:15:06.392Z,102416.60
2022-12-19T07:17:35.033Z,102419.20
2022-12-19T07:20:13.412Z,102417.15
2022-12-19T07:22:47.378Z,102404.20
2022-12-19T07:25:17.936Z,102421.80
2022-12-19T07:27:47.128Z,102419.73
2022-12-19T07:30:15.597Z,102431.73
2022-12-19T07:32:46.922Z,102429.71
2022-12-19T07:35:16.791Z,102438.38
2022-12-19T07:37:45.295Z,102451.72
2022-12-19T07:40:13.888Z,102463.84
2022-12-19T07:42:42.565Z,102449.46
2022-12-19T07:45:12.508Z,102453.98
2022-12-19T07:47:41.392Z,102448.52
2022-12-19T07:50:10.110Z,102438.06
2022-12-19T07:52:38.839Z,102448.20
2022-12-19T07:55:23.499Z,102439.57
2022-12-19T07:57:52.343Z,102440.05
2022-12-19T08:00:21.880Z,102449.66
2022-12-19T08:02:50.616Z,102464.20
2022-12-19T08:05:19.423Z,102456.83
2022-12-19T08:07:47.978Z,102456.06
2022-12-19T08:10:16.643Z,102462.63
2022-12-19T08:12:45.745Z,102470.39
2022-12-19T08:15:15.741Z,102461.16
2022-12-19T08:17:44.365Z,102465.70
2022-12-19T08:20:13.834Z,102462.52
2022-12-19T08:22:42.302Z,102460.93
2022-12-19T08:25:10.779Z,102473.11
2022-12-19T08:27:41.520Z,102470.38
2022-12-19T08:33:00.449Z,102471.09
2022-12-19T08:35:29.060Z,102456.10
2022-12-19T08:37:57.684Z,102468.83
2022-12-19T08:40:26.201Z,102450.55
2022-12-19T08:42:55.448Z,102472.62
2022-12-19T08:45:23.897Z,102468.25
2022-12-19T08:47:53.352Z,102459.27
2022-12-19T08:50:21.849Z,102465.16
2022-12-19T08:52:50.709Z,102463.85
2022-12-19T08:55:19.372Z,102445.86
2022-12-19T08:57:46.526Z,102454.29
2022-12-19T09:00:16.060Z,102451.42
2022-12-19T09:06:04.371Z,102432.63
2022-12-19T09:08:33.456Z,102453.88
2022-12-19T09:11:08.422Z,102449.41
2022-12-19T09:13:40.621Z,102448.55
2022-12-19T09:16:17.007Z,102433.86
2022-12-19T09:18:48.662Z,102432.86
2022-12-19T09:21:19.836Z,102440.08
2022-12-19T09:23:52.354Z,102437.65
2022-12-19T09:26:23.495Z,102440.75
2022-12-19T09:28:53.707Z,102443.98
2022-12-19T09:31:25.282Z,102439.27
2022-12-19T09:33:54.227Z,102429.67
2022-12-19T09:36:25.144Z,102427.20
2022-12-19T09:38:55.665Z,102428.67
2022-12-19T09:41:39.306Z,102435.40
2022-12-19T09:45:06.083Z,102421.54
2022-12-19T09:47:42.309Z,102418.44
2022-12-19T09:50:31.038Z,102416.79
2022-12-19T09:53:08.339Z,102412.98
2022-12-19T09:55:41.435Z,102417.02
2022-12-19T09:58:37.997Z,102415.94
2022-12-19T10:01:26.877Z,102416.41
2022-12-19T10:04:13.449Z,102414.14
2022-12-19T10:07:22.226Z,102416.23
2022-12-19T10:11:34.779Z,102413.08
2022-12-19T10:13:12.837Z,102409.17
2022-12-19T10:16:01.163Z,102406.71
2022-12-19T10:18:35.825Z,102412.61
2022-12-19T10:21:50.703Z,102408.67
2022-12-19T10:24:24.082Z,102397.12
2022-12-19T10:26:59.609Z,102394.33
2022-12-19T10:29:30.872Z,102398.63
2022-12-19T10:32:32.554Z,102381.83
2022-12-19T10:35:01.829Z,102377.92
2022-12-19T10:37:49.148Z,102382.59
2022-12-19T10:41:04.424Z,102380.09
2022-12-19T10:43:48.204Z,102385.36
2022-12-19T10:46:41.148Z,102380.67
2022-12-19T10:49:22.839Z,102384.38
2022-12-19T10:52:03.517Z,102377.57
2022-12-19T10:54:38.050Z,102380.94
2022-12-19T10:57:31.176Z,102375.77
2022-12-19T11:00:17.015Z,102362.49
2022-12-19T11:02:49.124Z,102354.32
2022-12-19T11:05:47.360Z,102362.84
2022-12-19T11:08:28.225Z,102366.23
2022-12-19T11:12:07.352Z,102368.53
2022-12-19T11:18:38.889Z,102366.30
2022-12-19T11:23:15.159Z,102358.82
2022-12-19T11:29:15.977Z,102363.58
2022-12-19T11:29:33.109Z,102365.33
2022-12-19T11:29:33.803Z,102366.13
2022-12-19T11:30:47.662Z,102368.84
2022-12-19T11:32:32.028Z,102356.16
2022-12-19T11:34:24.037Z,102352.72
2022-12-19T11:37:39.315Z,102364.95
2022-12-19T11:40:43.164Z,102363.71
2022-12-19T11:43:43.643Z,102367.59
2022-12-19T11:46:42.276Z,102360.63
2022-12-19T11:49:27.423Z,102364.46
2022-12-19T11:52:36.983Z,102366.38
2022-12-19T11:55:31.344Z,102366.53
2022-12-19T11:58:00.784Z,102364.29
2022-12-19T12:00:30.674Z,102361.30
2022-12-19T12:03:14.180Z,102365.00
2022-12-19T12:05:48.048Z,102364.78
2022-12-19T12:11:50.166Z,102369.70
2022-12-19T12:20:19.383Z,102370.80
2022-12-19T12:25:49.557Z,102372.23
2022-12-19T12:30:46.263Z,102361.61
2022-12-19T12:31:22.342Z,102371.75
2022-12-19T12:31:53.739Z,102377.00
2022-12-19T12:32:03.751Z,102367.66
2022-12-19T12:37:05.197Z,102360.06
2022-12-19T12:38:28.834Z,102345.23
2022-12-19T12:41:56.629Z,102362.06
2022-12-19T12:44:32.975Z,102363.08
2022-12-19T12:47:30.683Z,102362.41
2022-12-19T12:50:09.196Z,102357.11
2022-12-19T12:52:48.473Z,102357.64
2022-12-19T12:55:41.564Z,102351.84
2022-12-19T12:58:47.066Z,102366.23
2022-12-19T13:01:31.127Z,102372.27
2022-12-19T13:04:20.184Z,102365.47
2022-12-19T13:06:51.396Z,102357.77
2022-12-19T13:09:31.897Z,102357.70
2022-12-19T13:12:19.032Z,102346.55
2022-12-19T13:14:52.498Z,102357.92
2022-12-19T13:17:33.174Z,102354.04
2022-12-19T13:20:04.608Z,102357.65
2022-12-19T13:22:32.949Z,102354.84
2022-12-19T13:25:01.517Z,102361.52
2022-12-19T13:27:48.092Z,102354.68
2022-12-19T13:30:20.835Z,102355.54
2022-12-19T13:32:49.370Z,102351.91
2022-12-19T13:36:45.475Z,102354.63
2022-12-19T13:40:00.761Z,102359.09
2022-12-19T13:41:49.809Z,102358.36
2022-12-19T13:44:22.765Z,102358.28
2022-12-19T13:46:52.440Z,102344.90
2022-12-19T13:49:34.711Z,102352.30
2022-12-19T13:52:05.508Z,102354.04
2022-12-19T13:54:47.436Z,102346.92
2022-12-19T13:57:32.074Z,102339.39
2022-12-19T14:00:08.316Z,102347.63
2022-12-19T14:02:48.763Z,102343.34
2022-12-19T14:06:17.897Z,102339.16
2022-12-19T14:08:31.859Z,102330.37
2022-12-19T14:11:39.309Z,102330.85
2022-12-19T14:14:20.704Z,102338.33
2022-12-19T14:17:06.542Z,102328.46
2022-12-19T14:19:45.747Z,102326.78
2022-12-19T14:22:25.456Z,102328.38
2022-12-19T14:25:52.387Z,102324.71
2022-12-19T14:28:25.226Z,102326.31
2022-12-19T14:30:57.872Z,102314.27
2022-12-19T14:33:46.562Z,102313.04
2022-12-19T14:36:33.007Z,102321.05
2022-12-19T14:39:26.974Z,102316.62
2022-12-19T14:42:12.957Z,102316.30
2022-12-19T14:52:25.480Z,102323.30
2022-12-19T14:54:05.224Z,102320.79
2022-12-19T14:54:10.512Z,102318.02
2022-12-19T14:54:31.035Z,102313.42
2022-12-19T14:56:47.188Z,102315.73
2022-12-19T14:59:36.909Z,102314.30
2022-12-19T15:02:08.518Z,102312.04
2022-12-19T15:04:53.010Z,102301.48
2022-12-19T15:07:29.084Z,102312.84
2022-12-19T15:11:03.601Z,102310.14
2022-12-19T15:14:53.480Z,102303.25
2022-12-19T15:16:24.675Z,102307.02
2022-12-19T15:19:04.046Z,102308.14
2022-12-19T15:21:32.457Z,102316.64
2022-12-19T15:24:01.083Z,102316.41
2022-12-19T15:26:47.731Z,102313.86
2022-12-19T15:29:21.604Z,102308.16
2022-12-19T15:31:51.013Z,102304.19
2022-12-19T15:34:37.962Z,102306.63
2022-12-19T15:37:14.319Z,102310.66
2022-12-19T15:39:44.755Z,102310.34
2022-12-19T15:42:25.095Z,102308.13
2022-12-19T15:44:56.708Z,102302.39
2022-12-19T15:47:37.894Z,102290.80
2022-12-19T15:50:28.812Z,102296.17
2022-12-19T15:52:59.905Z,102295.75
2022-12-19T15:55:30.784Z,102291.95
2022-12-19T15:58:03.539Z,102297.98
2022-12-19T16:00:36.552Z,102300.27
2022-12-19T16:05:53.946Z,102294.09
2022-12-19T16:08:26.407Z,102276.21
2022-12-19T16:11:01.429Z,102290.63
2022-12-19T16:13:34.945Z,102289.63
2022-12-19T16:16:11.196Z,102295.40
2022-12-19T16:18:45.599Z,102295.13
2022-12-19T16:21:31.465Z,102294.61
2022-12-19T16:24:01.914Z,102296.73
2022-12-19T16:26:34.782Z,102298.86
2022-12-19T16:29:04.376Z,102297.64
2022-12-19T16:31:33.026Z,102297.14
2022-12-19T16:34:02.675Z,102300.84
2022-12-19T16:36:31.921Z,102290.73
2022-12-19T16:39:00.387Z,102290.32
2022-12-19T16:41:28.897Z,102286.52
2022-12-19T16:43:58.037Z,102294.63
2022-12-19T16:46:32.431Z,102297.08
2022-12-19T16:49:00.993Z,102294.70
2022-12-19T16:51:29.653Z,102285.82
2022-12-19T16:53:59.415Z,102276.83
2022-12-19T16:56:37.297Z,102288.33
2022-12-19T16:59:16.919Z,102288.94
2022-12-19T17:01:46.329Z,102281.60
2022-12-19T17:04:18.285Z,102291.77
2022-12-19T17:06:46.749Z,102287.84
2022-12-19T17:09:21.027Z,102296.98
2022-12-19T17:11:54.802Z,102298.56
2022-12-19T17:14:27.397Z,102296.02
2022-12-19T17:16:58.714Z,102292.16
2022-12-19T17:19:38.440Z,102275.97
2022-12-19T17:22:14.207Z,102294.88
2022-12-19T17:24:45.392Z,102301.11
2022-12-19T17:27:14.598Z,102299.72
2022-12-19T17:29:43.223Z,102293.59
2022-12-19T17:32:23.184Z,102299.83
2022-12-19T17:34:52.707Z,102296.17
2022-12-19T17:37:21.335Z,102284.65
2022-12-19T17:39:52.857Z,102287.54
2022-12-19T17:42:24.912Z,102295.64
2022-12-19T17:44:53.402Z,102298.87
2022-12-19T17:47:21.925Z,102293.12
2022-12-19T17:49:50.678Z,102291.52
2022-12-19T17:52:20.172Z,102291.33
2022-12-19T17:54:48.533Z,102291.82
2022-12-19T17:57:18.497Z,102296.89
2022-12-19T17:59:47.099Z,102290.73
2022-12-19T18:02:22.998Z,102292.29
2022-12-19T18:04:52.697Z,102293.55
2022-12-19T18:07:21.410Z,102293.92
2022-12-19T18:09:50.019Z,102294.63
2022-12-19T18:12:18.437Z,102288.79
2022-12-19T18:14:46.810Z,102286.56
2022-12-19T18:17:24.602Z,102273.52
2022-12-19T18:19:53.368Z,102269.58
2022-12-19T18:22:21.978Z,102272.20
2022-12-19T18:24:50.615Z,102277.34
2022-12-19T18:27:19.017Z,102272.35
2022-12-19T18:29:47.385Z,102274.98
2022-12-19T18:32:19.666Z,102274.66
2022-12-19T18:34:48.079Z,102268.87
2022-12-19T18:37:16.660Z,102265.28
2022-12-19T18:39:45.317Z,102267.91
2022-12-19T18:42:21.652Z,102261.15
2022-12-19T18:44:50.230Z,102265.73
2022-12-19T18:47:23.579Z,102266.13
2022-12-19T18:49:52.671Z,102258.06
2022-12-19T18:52:21.069Z,102261.72
2022-12-19T18:54:49.681Z,102256.48
2022-12-19T18:57:18.259Z,102256.64
2022-12-19T18:59:48.914Z,102255.96
2022-12-19T19:02:27.973Z,102255.65
2022-12-19T19:04:56.937Z,102248.54
2022-12-19T19:07:25.536Z,102249.95
2022-12-19T19:09:54.386Z,102253.42
2022-12-19T19:12:38.337Z,102250.14
2022-12-19T19:15:08.039Z,102255.66
2022-12-19T19:17:36.527Z,102249.70
2022-12-19T19:20:05.933Z,102241.38
2022-12-19T19:22:35.279Z,102237.31
2022-12-19T19:25:04.733Z,102239.58
2022-12-19T19:27:33.113Z,102232.71
2022-12-19T19:30:01.726Z,102228.77
2022-12-19T19:32:30.619Z,102219.48
2022-12-19T19:34:59.885Z,102224.78
2022-12-19T19:37:28.982Z,102217.17
2022-12-19T19:39:57.461Z,102209.79
2022-12-19T19:42:26.044Z,102210.89
2022-12-19T19:44:54.419Z,102211.02
2022-12-19T19:47:28.492Z,102214.60
2022-12-19T19:49:57.214Z,102211.67
2022-12-19T19:52:25.722Z,102213.92
2022-12-19T19:54:54.182Z,102205.06
2022-12-19T19:57:22.747Z,102203.48
2022-12-19T19:59:51.153Z,102207.17
2022-12-19T20:02:20.101Z,102206.77
2022-12-19T20:04:49.257Z,102208.64
2022-12-19T20:07:18.172Z,102206.30
2022-12-19T20:09:46.816Z,102207.02
2022-12-19T20:12:15.651Z,102208.50
2022-12-19T20:14:44.081Z,102205.21
2022-12-19T20:17:12.590Z,102203.90
2022-12-19T20:19:41.084Z,102209.39
2022-12-19T20:22:09.548Z,102216.34
2022-12-19T20:24:37.968Z,102217.23
2022-12-19T20:27:06.744Z,102220.94
2022-12-19T20:29:35.258Z,102209.15
2022-12-19T20:32:05.020Z,102204.41
2022-12-19T20:34:33.965Z,102189.40
2022-12-19T20:37:02.552Z,102180.73
2022-12-19T20:39:31.185Z,102177.65
2022-12-19T20:41:59.861Z,102183.24
2022-12-19T20:44:28.560Z,102187.98
2022-12-19T20:46:57.278Z,102183.10
2022-12-19T20:49:26.085Z,102182.91
2022-12-19T20:51:54.636Z,102178.73
2022-12-19T20:54:23.970Z,102180.35
2022-12-19T20:56:52.857Z,102176.41
2022-12-19T20:59:21.571Z,102171.96
2022-12-19T21:01:50.483Z,102169.11
2022-12-19T21:04:19.336Z,102170.33
2022-12-19T21:06:47.951Z,102168.88
2022-12-19T21:09:16.360Z,102159.38
2022-12-19T21:11:44.892Z,102160.84
2022-12-19T21:14:13.333Z,102156.88
2022-12-19T21:16:42.001Z,102153.08
2022-12-19T21:19:10.605Z,102149.29
2022-12-19T21:21:38.992Z,102153.85
2022-12-19T21:24:07.780Z,102149.60
2022-12-19T21:26:36.274Z,102146.57
2022-12-19T21:29:05.406Z,102155.56
2022-12-19T21:31:34.179Z,102152.48
2022-12-19T21:34:03.300Z,102154.34
2022-12-19T21:36:32.021Z,102159.25
2022-12-19T21:39:02.142Z,102155.23
2022-12-19T21:41:32.569Z,102152.80
2022-12-19T21:44:01.151Z,102147.67
2022-12-19T21:46:35.653Z,102142.89
2022-12-19T21:49:04.276Z,102132.91
2022-12-19T21:51:33.188Z,102134.35
2022-12-19T21:54:04.817Z,102131.23
2022-12-19T21:56:41.007Z,102121.77
2022-12-19T21:59:17.560Z,102115.59
2022-12-19T22:01:46.442Z,102113.11
2022-12-19T22:04:22.244Z,102111.92
2022-12-19T22:06:51.593Z,102110.10
2022-12-19T22:09:22.963Z,102108.55
2022-12-19T22:11:52.025Z,102102.05
2022-12-19T22:14:20.708Z,102103.73
2022-12-19T22:16:49.184Z,102108.04
2022-12-19T22:19:19.598Z,102110.90
2022-12-19T22:21:48.457Z,102093.88
2022-12-19T22:24:17.860Z,102106.86
2022-12-19T22:26:46.525Z,102103.18
2022-12-19T22:29:17.460Z,102102.20
2022-12-19T22:31:47.086Z,102101.02
2022-12-19T22:34:19.680Z,102102.25
2022-12-19T22:36:49.297Z,102097.07
2022-12-19T22:39:19.899Z,102091.23
2022-12-19T22:41:48.651Z,102080.86
2022-12-19T22:44:24.613Z,102080.02
2022-12-19T22:46:53.179Z,102067.89
2022-12-19T22:49:21.867Z,102062.27
2022-12-19T22:51:50.393Z,102055.69
2022-12-19T22:54:18.934Z,102052.73
2022-12-19T22:56:52.021Z,102048.06
2022-12-19T22:59:20.706Z,102043.63
2022-12-19T23:01:49.216Z,102040.14
2022-12-19T23:04:18.229Z,102038.13
2022-12-19T23:06:46.838Z,102037.60
2022-12-19T23:09:18.649Z,102039.21
2022-12-19T23:11:49.923Z,102033.42
2022-12-19T23:14:20.848Z,102027.93
2022-12-19T23:16:50.100Z,102026.59
2022-12-19T23:19:19.300Z,102021.25
2022-12-19T23:21:48.009Z,102019.15
2022-12-19T23:24:16.567Z,102014.77
2022-12-19T23:26:45.495Z,102007.18
2022-12-19T23:29:15.926Z,102008.52
2022-12-19T23:31:47.083Z,102005.42
2022-12-19T23:34:17.040Z,102010.23
2022-12-19T23:37:10.056Z,102009.60
2022-12-19T23:39:35.654Z,102011.17
2022-12-19T23:42:04.507Z,102010.86
2022-12-19T23:44:33.529Z,102010.94
2022-12-19T23:47:03.768Z,102007.50
2022-12-19T23:49:34.198Z,102009.95
2022-12-19T23:52:02.757Z,102009.02
2022-12-19T23:54:31.501Z,102007.99
2022-12-19T23:57:00.093Z,102006.31
2022-12-19T23:59:28.685Z,102000.96
